Time;durP1;ratioP1;P1;durP2;ratioP2;P2;SDS_P1;SDS_P2;PMS_P1;PMS_P2;Temp;Humidity;BMP_temperature;BMP_pressure;BME280_temperature;BME280_humidity;BME280_pressure;Samples;Min_cycle;Max_cycle;Signal;HPM_P1;HPM_P2
2021/03/11 00:00:19;;;;;;;32.07;17.67;;;;;;;-0.09;48.77;97322.50;1784298;79;21286;-79
2021/03/11 00:02:49;;;;;;;38.23;21.93;;;;;;;-0.13;48.50;97323.48;1778823;81;21121;-78
2021/03/11 00:05:19;;;;;;;36.30;21.47;;;;;;;-0.17;49.01;97329.22;1779331;80;21172;-79
2021/03/11 00:07:47;;;;;;;43.40;21.70;;;;;;;-0.21;49.43;97331.51;1811775;79;21123;-78
2021/03/11 00:10:15;;;;;;;43.98;24.18;;;;;;;-0.31;49.16;97328.39;1821669;79;21155;-78
2021/03/11 00:12:47;;;;;;;47.37;25.60;;;;;;;-0.35;49.30;97330.66;1821912;79;21258;-78
2021/03/11 00:15:19;;;;;;;40.90;22.23;;;;;;;-0.38;49.48;97327.73;1821833;79;21245;-78
2021/03/11 00:17:47;;;;;;;42.10;21.83;;;;;;;-0.48;49.79;97330.22;1798315;79;21084;-79
2021/03/11 00:20:20;;;;;;;46.07;25.73;;;;;;;-0.55;49.85;97320.50;1803050;79;21136;-78
2021/03/11 00:22:49;;;;;;;50.50;27.63;;;;;;;-0.59;49.95;97316.76;1822197;79;21119;-77
2021/03/11 00:25:21;;;;;;;53.03;26.93;;;;;;;-0.68;50.27;97316.63;1822204;78;21318;-78
2021/03/11 00:27:49;;;;;;;54.43;30.00;;;;;;;-0.75;50.41;97321.60;1822121;79;21136;-79
2021/03/11 00:30:19;;;;;;;77.43;36.50;;;;;;;-0.87;50.47;97318.48;1821765;79;21269;-77
2021/03/11 00:32:48;;;;;;;63.23;32.17;;;;;;;-1.02;50.65;97317.22;1817753;79;21128;-79
2021/03/11 00:35:16;;;;;;;63.17;32.77;;;;;;;-1.10;51.32;97317.89;1779185;80;21097;-77
2021/03/11 00:37:47;;;;;;;63.73;33.57;;;;;;;-1.15;51.74;97317.16;1778580;80;21141;-78
2021/03/11 00:40:18;;;;;;;66.70;35.63;;;;;;;-1.15;51.78;97310.70;1803298;79;21143;-76
2021/03/11 00:42:49;;;;;;;71.63;31.87;;;;;;;-1.16;51.85;97303.40;1821228;78;21124;-76
2021/03/11 00:45:18;;;;;;;56.80;30.03;;;;;;;-1.21;51.94;97297.53;1819357;79;21482;-77
2021/03/11 00:47:47;;;;;;;54.83;29.30;;;;;;;-1.27;51.96;97295.97;1822155;79;21265;-76
2021/03/11 00:50:19;;;;;;;57.73;30.20;;;;;;;-1.39;52.00;97300.20;1790265;79;21101;-77
2021/03/11 00:52:49;;;;;;;50.33;28.80;;;;;;;-1.43;52.34;97299.87;1790154;79;21294;-77
2021/03/11 00:55:20;;;;;;;58.10;29.27;;;;;;;-1.45;52.62;97302.52;1806703;79;21116;-75
2021/03/11 00:57:48;;;;;;;58.20;30.33;;;;;;;-1.46;52.95;97301.27;1801372;79;21613;-80
2021/03/11 01:00:21;;;;;;;57.83;29.67;;;;;;;-1.51;52.71;97300.54;1821795;79;21211;-78
2021/03/11 01:02:54;;;;;;;54.30;28.98;;;;;;;-1.54;52.98;97295.48;1821756;79;21117;-77
2021/03/11 01:05:29;;;;;;;62.03;32.40;;;;;;;-1.62;53.00;97299.10;1822197;78;21066;-77
2021/03/11 01:07:59;;;;;;;55.53;28.50;;;;;;;-1.62;53.04;97302.98;1798081;79;21105;-77
2021/03/11 01:10:30;;;;;;;56.63;29.60;;;;;;;-1.66;53.31;97297.51;1814088;79;21118;-78
2021/03/11 01:13:00;;;;;;;58.97;29.20;;;;;;;-1.73;53.63;97300.70;1822194;79;21227;-76
2021/03/11 01:15:38;;;;;;;55.60;27.07;;;;;;;-1.77;53.62;97300.41;1821404;78;21297;-78
2021/03/11 01:18:08;;;;;;;54.10;27.83;;;;;;;-1.84;53.57;97313.06;1813758;79;21097;-77
2021/03/11 01:20:38;;;;;;;53.03;27.43;;;;;;;-1.84;53.76;97311.77;1779347;80;21723;-77
2021/03/11 01:23:06;;;;;;;57.50;29.30;;;;;;;-1.86;53.50;97307.11;1789683;79;21112;-77
2021/03/11 01:25:34;;;;;;;51.00;25.77;;;;;;;-1.84;53.71;97305.31;1821913;79;21235;-77
2021/03/11 01:28:02;;;;;;;50.80;26.07;;;;;;;-1.89;53.62;97317.52;1803435;78;21226;-78
2021/03/11 01:30:30;;;;;;;51.70;25.17;;;;;;;-1.92;53.95;97317.17;1792912;80;21139;-77
2021/03/11 01:33:00;;;;;;;47.07;25.63;;;;;;;-1.96;53.68;97314.25;1816157;78;21136;-77
2021/03/11 01:35:29;;;;;;;43.57;22.43;;;;;;;-1.96;53.77;97306.50;1830566;78;21108;-77
2021/03/11 01:37:57;;;;;;;52.90;26.10;;;;;;;-1.93;53.78;97307.72;1829998;78;21111;-76
2021/03/11 01:40:26;;;;;;;46.53;25.13;;;;;;;-1.96;54.01;97303.91;1801928;78;21254;-77
2021/03/11 01:42:56;;;;;;;48.93;25.13;;;;;;;-1.93;54.05;97303.84;1774046;78;21203;-76
2021/03/11 01:45:24;;;;;;;52.50;26.10;;;;;;;-1.93;54.03;97299.97;1771495;78;21254;-75
2021/03/11 01:47:52;;;;;;;47.90;27.13;;;;;;;-1.95;53.69;97296.56;1767423;81;21315;-75
2021/03/11 01:50:20;;;;;;;52.87;25.53;;;;;;;-1.99;53.43;97296.23;1816652;78;21226;-78
2021/03/11 01:52:51;;;;;;;49.63;25.50;;;;;;;-2.08;53.01;97290.88;1830412;78;21238;-77
2021/03/11 01:55:20;;;;;;;52.10;26.37;;;;;;;-2.14;53.11;97300.09;1830308;78;21136;-77
2021/03/11 01:57:48;;;;;;;56.87;26.70;;;;;;;-2.16;53.74;97297.13;1830787;78;21100;-78
2021/03/11 02:00:19;;;;;;;50.80;26.10;;;;;;;-2.16;54.36;97290.67;1828949;78;21296;-78
2021/03/11 02:02:50;;;;;;;53.67;27.33;;;;;;;-2.15;54.38;97283.33;1831254;78;21253;-75
2021/03/11 02:05:20;;;;;;;55.30;28.40;;;;;;;-2.14;54.55;97284.59;1831610;78;21640;-78
2021/03/11 02:07:48;;;;;;;51.20;27.03;;;;;;;-2.28;54.24;97281.52;1831526;78;21314;-77
2021/03/11 02:10:22;;;;;;;50.23;23.67;;;;;;;-2.34;54.77;97281.68;1826643;78;21148;-76
2021/03/11 02:13:30;;;;;;;51.33;24.67;;;;;;;-2.33;55.08;97273.05;1767071;81;21576;-77
2021/03/11 02:16:29;;;;;;;38.23;19.93;;;;;;;-2.43;54.89;97275.00;1767246;81;21147;-79
2021/03/11 02:19:41;;;;;;;37.83;18.00;;;;;;;-2.41;55.33;97278.40;1787682;78;21115;-76
2021/03/11 02:22:57;;;;;;;39.83;19.47;;;;;;;-2.38;55.35;97276.58;1826702;78;21155;-76
2021/03/11 02:26:04;;;;;;;37.03;18.93;;;;;;;-2.40;55.30;97280.09;1767321;81;21216;-77
2021/03/11 02:28:54;;;;;;;44.70;22.00;;;;;;;-2.48;55.31;97287.19;1767782;78;21271;-77
2021/03/11 02:31:23;;;;;;;44.63;22.07;;;;;;;-2.57;55.49;97290.41;1787434;78;21096;-77
2021/03/11 02:33:55;;;;;;;48.10;24.07;;;;;;;-2.62;55.68;97293.98;1830791;78;21758;-77
2021/03/11 02:36:26;;;;;;;54.17;24.73;;;;;;;-2.63;56.13;97294.87;1813761;78;21088;-77
2021/03/11 02:38:55;;;;;;;44.07;22.83;;;;;;;-2.65;56.12;97292.34;1786654;78;21084;-76
2021/03/11 02:41:26;;;;;;;47.53;23.57;;;;;;;-2.70;55.18;97289.86;1831078;78;21215;-77
2021/03/11 02:43:55;;;;;;;45.63;23.87;;;;;;;-2.79;55.70;97288.80;1825924;78;21254;-79
2021/03/11 02:46:25;;;;;;;46.03;22.90;;;;;;;-2.85;56.45;97296.66;1797653;80;21210;-77
2021/03/11 02:48:55;;;;;;;51.60;22.97;;;;;;;-2.87;56.27;97297.13;1816247;78;21285;-76
2021/03/11 02:51:24;;;;;;;50.13;23.40;;;;;;;-2.85;56.64;97295.37;1800697;78;21068;-76
2021/03/11 02:53:53;;;;;;;46.60;24.00;;;;;;;-2.86;56.39;97294.95;1810375;78;21676;-76
2021/03/11 02:56:22;;;;;;;49.40;24.63;;;;;;;-2.96;56.44;97287.89;1802960;78;21837;-76
2021/03/11 02:58:54;;;;;;;45.37;23.27;;;;;;;-3.04;56.37;97288.51;1830576;78;21254;-75
2021/03/11 03:01:25;;;;;;;36.00;18.73;;;;;;;-3.21;56.34;97287.59;1797579;78;21103;-82
2021/03/11 03:03:59;;;;;;;50.50;22.97;;;;;;;-3.35;57.20;97288.75;1810259;78;21250;-76
2021/03/11 03:06:31;;;;;;;47.73;23.97;;;;;;;-3.36;56.89;97293.92;1831968;78;21238;-77
2021/03/11 03:09:00;;;;;;;48.23;22.73;;;;;;;-3.50;59.10;97291.63;1831656;78;21262;-76
2021/03/11 03:11:31;;;;;;;46.50;21.93;;;;;;;-3.57;58.69;97295.23;1831577;78;21139;-75
2021/03/11 03:14:02;;;;;;;45.87;22.43;;;;;;;-3.62;58.02;97299.19;1804907;78;21676;-77
2021/03/11 03:16:30;;;;;;;42.17;22.57;;;;;;;-3.64;58.45;97307.38;1803625;78;21084;-78
2021/03/11 03:19:01;;;;;;;39.97;21.93;;;;;;;-3.65;58.44;97304.39;1787674;78;21081;-78
2021/03/11 03:21:30;;;;;;;47.83;22.77;;;;;;;-3.57;58.42;97318.42;1767725;81;21143;-76
2021/03/11 03:24:00;;;;;;;48.87;23.23;;;;;;;-3.53;58.24;97318.33;1767813;81;21295;-76
2021/03/11 03:26:28;;;;;;;39.20;18.97;;;;;;;-3.46;58.03;97324.21;1769352;78;21127;-78
2021/03/11 03:28:55;;;;;;;29.03;13.43;;;;;;;-3.47;58.85;97322.52;1767729;80;21258;-76
2021/03/11 03:31:23;;;;;;;42.50;23.43;;;;;;;-3.61;57.89;97324.08;1774353;79;21215;-77
2021/03/11 03:33:54;;;;;;;47.80;24.23;;;;;;;-3.72;57.31;97328.16;1788819;79;21234;-77
2021/03/11 03:36:22;;;;;;;51.67;24.07;;;;;;;-3.66;58.25;97323.30;1785190;79;21589;-76
2021/03/11 03:38:50;;;;;;;48.90;23.50;;;;;;;-3.61;58.53;97322.79;1779164;80;21246;-77
2021/03/11 03:41:20;;;;;;;51.00;25.17;;;;;;;-3.49;58.86;97331.58;1779630;79;21266;-76
2021/03/11 03:43:50;;;;;;;48.13;24.43;;;;;;;-3.40;58.87;97334.38;1778619;80;21259;-75
2021/03/11 03:46:23;;;;;;;51.00;25.33;;;;;;;-3.32;58.70;97338.11;1779711;79;21325;-76
2021/03/11 03:48:58;;;;;;;52.60;24.33;;;;;;;-3.32;57.80;97347.13;1778405;80;21136;-77
2021/03/11 03:51:36;;;;;;;39.93;22.10;;;;;;;-3.30;58.61;97346.21;1779067;79;21100;-76
2021/03/11 03:54:09;;;;;;;41.23;21.30;;;;;;;-3.28;58.84;97348.75;1778353;80;21137;-77
2021/03/11 03:56:44;;;;;;;43.87;21.40;;;;;;;-3.30;58.71;97339.77;1778990;79;21115;-77
2021/03/11 03:59:17;;;;;;;40.37;19.77;;;;;;;-3.28;58.58;97339.72;1798246;79;21569;-75
2021/03/11 04:01:45;;;;;;;42.20;21.07;;;;;;;-3.25;58.30;97342.25;1781513;79;21278;-76
2021/03/11 04:04:16;;;;;;;41.17;21.73;;;;;;;-3.37;57.61;97346.36;1796731;79;21187;-75
2021/03/11 04:06:45;;;;;;;42.80;21.10;;;;;;;-3.37;58.41;97351.52;1781666;79;21128;-77
2021/03/11 04:09:14;;;;;;;37.03;19.97;;;;;;;-3.33;58.66;97350.13;1797757;79;21095;-76
2021/03/11 04:11:45;;;;;;;50.30;20.40;;;;;;;-3.32;58.68;97345.84;1809359;78;21582;-74
2021/03/11 04:14:16;;;;;;;41.20;20.03;;;;;;;-3.36;58.48;97350.64;1818478;79;21691;-74
2021/03/11 04:16:46;;;;;;;38.20;20.40;;;;;;;-3.43;58.17;97349.06;1824205;78;21239;-77
2021/03/11 04:19:16;;;;;;;37.00;17.67;;;;;;;-3.43;58.29;97351.65;1808950;78;21097;-76
2021/03/11 04:21:45;;;;;;;37.20;17.73;;;;;;;-3.50;58.20;97354.36;1789798;79;21237;-76
2021/03/11 04:24:13;;;;;;;27.97;16.63;;;;;;;-3.58;57.90;97359.23;1792339;79;21202;-77
2021/03/11 04:26:42;;;;;;;33.67;16.27;;;;;;;-3.70;58.03;97357.30;1781455;79;21160;-76
2021/03/11 04:29:10;;;;;;;34.33;17.33;;;;;;;-3.75;58.68;97359.13;1790386;79;21119;-77
2021/03/11 04:31:38;;;;;;;37.30;17.70;;;;;;;-3.70;59.87;97360.33;1809092;78;21134;-76
2021/03/11 04:34:10;;;;;;;33.90;17.33;;;;;;;-3.69;58.90;97355.59;1804917;78;21110;-77
2021/03/11 04:36:39;;;;;;;39.63;19.13;;;;;;;-3.66;59.09;97360.24;1787034;78;22310;-77
2021/03/11 04:39:08;;;;;;;39.43;19.70;;;;;;;-3.64;58.86;97362.36;1809693;78;21112;-77
2021/03/11 04:41:38;;;;;;;39.17;19.40;;;;;;;-3.62;60.21;97364.89;1790891;78;21116;-76
2021/03/11 04:44:09;;;;;;;38.20;18.77;;;;;;;-3.58;59.72;97361.40;1778928;81;21112;-77
2021/03/11 04:46:39;;;;;;;43.70;18.33;;;;;;;-3.61;59.10;97357.13;1822727;78;21282;-77
2021/03/11 04:49:09;;;;;;;39.00;18.30;;;;;;;-3.59;59.46;97362.69;1776709;79;21115;-76
2021/03/11 04:51:38;;;;;;;27.67;14.90;;;;;;;-3.58;59.43;97366.55;1787608;78;21561;-77
2021/03/11 04:54:06;;;;;;;31.03;14.83;;;;;;;-3.55;59.60;97365.18;1795499;78;21237;-76
2021/03/11 04:56:36;;;;;;;33.37;14.97;;;;;;;-3.51;59.12;97363.39;1767771;78;21269;-77
2021/03/11 04:59:05;;;;;;;36.37;17.73;;;;;;;-3.54;58.56;97369.46;1813087;78;21234;-77
2021/03/11 05:01:37;;;;;;;38.10;18.80;;;;;;;-3.58;58.73;97372.13;1787717;78;21098;-77
2021/03/11 05:04:09;;;;;;;38.13;19.40;;;;;;;-3.60;58.72;97381.19;1771305;80;21254;-76
2021/03/11 05:06:37;;;;;;;40.13;20.40;;;;;;;-3.68;58.42;97377.91;1788388;80;21286;-75
2021/03/11 05:09:04;;;;;;;40.37;20.23;;;;;;;-3.70;58.75;97380.95;1799283;78;21226;-75
2021/03/11 05:11:32;;;;;;;39.63;20.47;;;;;;;-3.83;58.62;97372.59;1800809;78;21597;-78
2021/03/11 05:14:02;;;;;;;41.77;18.93;;;;;;;-3.86;59.73;97378.66;1803861;78;21222;-77
2021/03/11 05:16:30;;;;;;;40.63;18.30;;;;;;;-3.85;58.83;97382.91;1803332;78;21101;-77
2021/03/11 05:18:58;;;;;;;45.83;20.70;;;;;;;-3.84;59.34;97379.91;1811176;78;21184;-76
2021/03/11 05:21:26;;;;;;;41.20;19.37;;;;;;;-3.85;58.88;97382.91;1803945;78;21104;-76
2021/03/11 05:23:56;;;;;;;46.97;21.13;;;;;;;-3.77;58.83;97381.06;1783758;79;21103;-77
2021/03/11 05:26:23;;;;;;;43.53;20.27;;;;;;;-3.69;58.83;97388.63;1788182;79;21153;-77
2021/03/11 05:28:51;;;;;;;42.83;22.10;;;;;;;-3.63;58.35;97400.14;1771253;79;21588;-76
2021/03/11 05:31:21;;;;;;;46.83;24.33;;;;;;;-3.62;58.54;97400.52;1825730;78;21143;-77
2021/03/11 05:33:51;;;;;;;46.23;23.23;;;;;;;-3.52;58.61;97406.38;1820771;79;21123;-78
2021/03/11 05:36:21;;;;;;;42.50;21.17;;;;;;;-3.39;58.57;97404.86;1821888;79;21132;-80
2021/03/11 05:38:50;;;;;;;40.57;21.20;;;;;;;-3.31;58.18;97399.11;1821985;78;21672;-79
2021/03/11 05:41:19;;;;;;;43.63;22.37;;;;;;;-3.22;58.54;97395.47;1820505;79;21123;-78
2021/03/11 05:43:51;;;;;;;46.70;21.97;;;;;;;-3.16;58.08;97403.11;1817581;79;21112;-78
2021/03/11 05:46:22;;;;;;;48.73;20.23;;;;;;;-3.07;58.10;97405.50;1821670;79;21331;-77
2021/03/11 05:48:54;;;;;;;39.87;19.00;;;;;;;-2.88;60.20;97402.07;1821045;79;21128;-77
2021/03/11 05:51:22;;;;;;;33.73;16.83;;;;;;;-2.53;59.72;97402.18;1694286;84;21171;-77
2021/03/11 05:53:50;;;;;;;33.43;18.57;;;;;;;-2.16;57.93;97410.78;1692805;85;21143;-77
2021/03/11 05:56:18;;;;;;;38.07;20.47;;;;;;;-1.85;57.44;97401.81;1693210;85;21174;-77
2021/03/11 05:58:46;;;;;;;34.47;20.33;;;;;;;-1.42;56.68;97403.28;1693705;85;21131;-77
2021/03/11 06:01:16;;;;;;;44.57;19.80;;;;;;;-0.95;55.68;97412.34;1671634;85;21179;-78
2021/03/11 06:03:47;;;;;;;43.73;21.60;;;;;;;-0.45;54.67;97406.97;1667062;86;21179;-78
2021/03/11 06:06:18;;;;;;;46.50;21.33;;;;;;;0.01;53.39;97412.44;1666778;86;21219;-78
2021/03/11 06:08:47;;;;;;;45.53;22.83;;;;;;;0.38;52.53;97409.91;1698285;79;21172;-77
2021/03/11 06:11:17;;;;;;;47.73;23.93;;;;;;;0.75;51.11;97422.89;1820324;79;21207;-77
2021/03/11 06:13:47;;;;;;;49.55;23.57;;;;;;;1.20;50.70;97425.19;1822075;79;21259;-78
2021/03/11 06:16:26;;;;;;;50.63;26.23;;;;;;;1.58;49.89;97429.81;1808007;79;21092;-77
2021/03/11 06:18:56;;;;;;;64.00;28.92;;;;;;;2.00;49.45;97431.17;1813563;79;21163;-77
2021/03/11 06:21:24;;;;;;;47.38;26.48;;;;;;;2.45;47.58;97430.65;1822736;79;21262;-78
2021/03/11 06:23:52;;;;;;;50.30;26.93;;;;;;;2.80;46.85;97430.89;1822634;78;21164;-77
2021/03/11 06:26:20;;;;;;;47.60;25.85;;;;;;;3.00;46.26;97434.38;1815137;79;21124;-79
2021/03/11 06:28:53;;;;;;;41.25;22.80;;;;;;;3.14;45.32;97435.06;1822950;78;21231;-78
2021/03/11 06:31:29;;;;;;;37.00;20.50;;;;;;;3.27;45.21;97436.66;1823814;79;21163;-78
2021/03/11 06:33:59;;;;;;;34.60;19.12;;;;;;;3.65;45.45;97444.47;1827119;78;21274;-77
2021/03/11 06:36:30;;;;;;;43.33;24.98;;;;;;;4.01;42.40;97447.55;1784729;78;21179;-80
2021/03/11 06:38:59;;;;;;;35.03;18.73;;;;;;;4.30;43.95;97454.42;1780571;81;21100;-77
2021/03/11 06:41:44;;;;;;;29.67;18.17;;;;;;;4.62;42.08;97447.21;1780554;81;21219;-78
2021/03/11 06:44:13;;;;;;;28.95;19.87;;;;;;;4.74;43.67;97465.33;1779684;81;21136;-78
2021/03/11 06:47:00;;;;;;;35.73;19.48;;;;;;;4.89;42.51;97463.22;1812343;77;21116;-79
2021/03/11 06:49:28;;;;;;;33.92;20.23;;;;;;;5.17;42.83;97464.41;1781921;79;21132;-78
2021/03/11 06:52:14;;;;;;;33.73;20.20;;;;;;;5.29;41.76;97469.47;1780935;80;21152;-80
2021/03/11 06:55:03;;;;;;;34.48;20.25;;;;;;;5.72;41.87;97463.67;1781158;81;21282;-78
2021/03/11 06:57:35;;;;;;;37.13;19.95;;;;;;;5.72;41.87;97463.67;1785564;79;21088;-78
2021/03/11 07:00:21;;;;;;;31.17;18.85;;;;;;;6.05;40.64;97458.38;1828874;78;21285;-79
2021/03/11 07:02:54;;;;;;;;;;;;;;;6.40;40.34;97458.62;1830618;78;21144;-77
2021/03/11 07:05:26;;;;;;;26.73;18.17;;;;;;;6.65;36.14;97458.49;1828626;79;20240;-79
2021/03/11 07:08:11;;;;;;;26.45;17.20;;;;;;;6.85;38.31;97460.78;1811622;78;21148;-78
2021/03/11 07:10:40;;;;;;;27.00;16.37;;;;;;;7.05;38.40;97460.06;1783929;79;21116;-78
2021/03/11 07:13:08;;;;;;;32.40;17.05;;;;;;;7.25;38.03;97460.64;1781120;79;21142;-78
2021/03/11 07:15:38;;;;;;;26.57;15.78;;;;;;;7.50;39.00;97460.81;1782869;78;21092;-78
2021/03/11 07:18:21;;;;;;;38.42;23.87;;;;;;;7.50;39.00;97460.81;1779572;81;21239;-80
2021/03/11 07:20:51;;;;;;;32.80;17.32;;;;;;;7.60;37.88;97465.48;1779738;80;21117;-78
2021/03/11 07:23:23;;;;;;;30.75;17.87;;;;;;;7.88;36.78;97467.69;1780253;81;21234;-77
2021/03/11 07:25:54;;;;;;;28.85;16.27;;;;;;;8.06;35.79;97475.70;1780460;80;21414;-78
2021/03/11 07:28:29;;;;;;;24.10;15.43;;;;;;;8.16;37.61;97472.48;1780587;80;21282;-77
2021/03/11 07:31:02;;;;;;;30.05;18.02;;;;;;;7.97;37.65;97478.91;1780483;80;21109;-79
2021/03/11 07:33:34;;;;;;;28.60;18.42;;;;;;;7.89;37.24;97478.08;1644896;86;21599;-79
2021/03/11 07:36:06;;;;;;;29.77;17.87;;;;;;;7.87;36.21;97479.98;1663772;86;21200;-79
2021/03/11 07:38:55;;;;;;;32.28;17.02;;;;;;;7.82;36.02;97449.23;1861384;76;26511;-78
2021/03/11 07:41:23;;;;;;;24.92;15.55;;;;;;;8.04;36.85;97488.56;1832205;78;21605;-79
2021/03/11 07:43:52;;;;;;;31.05;14.78;;;;;;;8.09;35.78;97487.78;1832571;78;21244;-78
2021/03/11 07:46:21;;;;;;;20.12;13.75;;;;;;;8.34;35.24;97484.42;1795398;79;21156;-78
2021/03/11 07:48:49;;;;;;;22.82;13.98;;;;;;;8.47;35.21;97481.87;1822386;78;21128;-79
2021/03/11 07:51:18;;;;;;;27.65;14.38;;;;;;;8.43;35.23;97480.38;1800402;79;21116;-79
2021/03/11 07:53:46;;;;;;;23.42;12.80;;;;;;;8.32;35.04;97480.22;1800786;80;21147;-78
2021/03/11 07:56:17;;;;;;;25.27;13.00;;;;;;;7.96;33.79;97474.15;1800762;79;21100;-77
2021/03/11 07:58:47;;;;;;;18.05;10.43;;;;;;;7.96;33.79;97474.15;1819676;79;21130;-78
2021/03/11 08:01:18;;;;;;;18.75;10.90;;;;;;;7.65;34.17;97468.20;1821809;79;21713;-77
2021/03/11 08:03:49;;;;;;;19.23;11.90;;;;;;;7.30;32.82;97469.05;1803231;79;21131;-77
2021/03/11 08:06:26;;;;;;;15.38;10.75;;;;;;;7.35;33.67;97469.15;1813333;79;21297;-78
2021/03/11 08:08:56;;;;;;;23.27;12.68;;;;;;;7.35;33.67;97469.15;1806470;79;21116;-78
2021/03/11 08:11:39;;;;;;;24.47;14.70;;;;;;;7.28;32.85;97477.51;1819333;78;21132;-77
2021/03/11 08:14:25;;;;;;;19.45;12.78;;;;;;;7.35;30.75;97470.95;1813006;79;21238;-78
2021/03/11 08:16:54;;;;;;;20.85;14.05;;;;;;;7.33;31.76;97472.33;1804943;79;21159;-79
2021/03/11 08:19:40;;;;;;;23.73;14.40;;;;;;;6.42;31.45;97473.78;1792300;79;21152;-78
2021/03/11 08:22:08;;;;;;;24.47;14.75;;;;;;;6.42;31.45;97473.78;1800969;79;21123;-78
2021/03/11 08:24:45;;;;;;;20.52;12.88;;;;;;;6.46;32.45;97484.92;1812769;79;21237;-77
2021/03/11 08:27:38;;;;;;;22.02;13.83;;;;;;;6.00;32.92;97483.97;1813291;79;21132;-78
2021/03/11 08:30:08;;;;;;;25.48;14.90;;;;;;;6.04;33.88;97487.27;1805118;79;21123;-78
2021/03/11 08:32:51;;;;;;;19.77;13.22;;;;;;;6.32;33.52;97493.09;1779922;80;21187;-78
2021/03/11 08:35:36;;;;;;;22.62;13.88;;;;;;;6.49;33.46;97491.30;1799255;80;21143;-78
2021/03/11 08:38:32;;;;;;;27.22;14.58;;;;;;;6.53;32.82;97483.63;1799941;79;21558;-78
2021/03/11 08:41:09;;;;;;;18.20;12.60;;;;;;;6.49;31.74;97487.38;1781568;81;21294;-77
2021/03/11 08:43:42;;;;;;;14.90;7.22;;;;;;;5.81;30.80;97469.70;1800170;78;21286;-78
2021/03/11 08:46:22;;;;;;;17.55;10.80;;;;;;;5.81;30.80;97469.70;1761741;81;21289;-78
2021/03/11 08:51:53;;;;;;;14.90;9.50;;;;;;;5.42;32.32;97477.02;1795807;79;27013;-78
2021/03/11 08:54:22;;;;;;;16.82;10.05;;;;;;;5.06;31.49;97477.21;1799234;78;21108;-79
2021/03/11 08:56:49;;;;;;;19.92;13.13;;;;;;;4.82;32.29;97481.45;1797863;80;21151;-79
2021/03/11 08:59:18;;;;;;;22.07;14.30;;;;;;;4.90;32.64;97475.37;1797378;80;21649;-78
2021/03/11 09:01:55;;;;;;;12.75;8.03;;;;;;;5.00;32.90;97477.89;1797525;80;21104;-77
2021/03/11 09:04:34;;;;;;;20.77;11.08;;;;;;;5.14;33.16;97472.42;1804789;78;21150;-79
2021/03/11 09:07:32;;;;;;;32.25;14.60;;;;;;;4.98;32.27;97475.81;1810948;78;21509;-77
2021/03/11 09:10:07;;;;;;;17.32;12.03;;;;;;;4.87;32.65;97478.16;1814719;78;21138;-77
2021/03/11 09:12:37;;;;;;;16.82;10.30;;;;;;;4.80;32.37;97475.45;1796434;80;21179;-78
2021/03/11 09:15:09;;;;;;;20.20;11.53;;;;;;;4.69;31.82;97483.36;1809920;78;21269;-78
2021/03/11 09:17:39;;;;;;;19.40;12.10;;;;;;;4.85;32.09;97473.47;1830295;78;21162;-77
2021/03/11 09:20:14;;;;;;;17.80;11.20;;;;;;;5.12;32.43;97471.66;1830744;78;21131;-77
2021/03/11 09:22:51;;;;;;;20.80;12.37;;;;;;;5.28;32.44;97465.99;1758404;81;21096;-77
2021/03/11 09:25:25;;;;;;;16.52;8.25;;;;;;;5.44;31.66;97459.94;1767554;81;21177;-75
2021/03/11 09:28:02;;;;;;;20.95;11.38;;;;;;;5.47;31.65;97458.48;1738413;82;21188;-75
2021/03/11 09:30:36;;;;;;;;;;;;;;;5.26;30.91;97464.39;1743458;81;21151;-76
2021/03/11 09:33:17;;;;;;;21.12;11.73;;;;;;;5.02;29.70;97456.90;1740420;82;20428;-80
2021/03/11 09:35:44;;;;;;;16.95;8.90;;;;;;;4.80;30.31;97452.80;1741363;82;21334;-77
2021/03/11 09:38:25;;;;;;;14.43;8.38;;;;;;;4.60;30.29;97451.19;1741353;81;21177;-79
2021/03/11 09:40:57;;;;;;;18.15;10.70;;;;;;;4.33;30.48;97453.42;1740858;81;21263;-78
2021/03/11 09:43:36;;;;;;;16.25;7.28;;;;;;;4.18;31.46;97453.23;1740795;82;21711;-76
2021/03/11 09:46:14;;;;;;;18.67;10.63;;;;;;;4.31;31.73;97452.20;1741204;82;21206;-77
2021/03/11 09:48:46;;;;;;;19.82;9.85;;;;;;;4.41;31.76;97448.66;1739016;81;21119;-74
2021/03/11 09:51:25;;;;;;;20.92;11.18;;;;;;;4.35;30.80;97446.38;1711195;83;21327;-77
2021/03/11 09:53:57;;;;;;;17.70;10.38;;;;;;;4.24;30.80;97440.83;1725719;82;21121;-77
2021/03/11 09:56:39;;;;;;;18.48;9.98;;;;;;;4.29;30.03;97441.44;1729020;82;21124;-78
2021/03/11 09:59:14;;;;;;;17.60;9.85;;;;;;;4.37;30.89;97438.84;1738817;82;21578;-77
2021/03/11 10:01:47;;;;;;;15.63;8.88;;;;;;;4.49;31.29;97427.41;1707869;84;21178;-79
2021/03/11 10:04:28;;;;;;;14.25;9.30;;;;;;;4.61;31.71;97431.16;1738495;83;21576;-78
2021/03/11 10:07:02;;;;;;;15.53;9.25;;;;;;;4.65;30.74;97432.23;1739681;81;21138;-74
2021/03/11 10:09:44;;;;;;;16.15;10.40;;;;;;;4.79;31.70;97428.91;1719753;83;21166;-75
2021/03/11 10:12:13;;;;;;;16.25;9.80;;;;;;;4.96;31.45;97429.36;1729640;82;21239;-74
2021/03/11 10:14:43;;;;;;;19.57;10.93;;;;;;;5.10;31.37;97423.84;1737067;82;21298;-75
2021/03/11 10:17:26;;;;;;;17.37;9.73;;;;;;;5.22;31.30;97431.05;1706230;84;21652;-76
2021/03/11 10:19:52;;;;;;;18.10;9.48;;;;;;;5.26;30.93;97427.80;1733417;82;21323;-75
2021/03/11 10:25:46;;;;;;;16.70;9.58;;;;;;;5.19;30.52;97428.58;1739353;79;21158;-75
2021/03/11 10:28:21;;;;;;;15.25;9.43;;;;;;;5.14;30.63;97424.08;1727605;82;21157;-75
2021/03/11 10:30:54;;;;;;;19.10;10.40;;;;;;;5.16;30.67;97432.21;1735491;83;21143;-74
2021/03/11 10:33:22;;;;;;;19.23;9.80;;;;;;;5.16;30.62;97434.83;1725480;82;21171;-73
2021/03/11 10:35:52;;;;;;;16.05;7.12;;;;;;;5.27;30.82;97442.09;1732953;82;21188;-74
2021/03/11 10:38:29;;;;;;;20.88;10.85;;;;;;;5.45;30.66;97439.41;1756837;81;21124;-75
2021/03/11 10:43:55;;;;;;;17.65;9.88;;;;;;;5.23;29.07;97447.11;1723105;82;21168;-75
2021/03/11 10:46:29;;;;;;;22.95;13.53;;;;;;;5.19;29.46;97442.95;1706303;81;21560;-76
2021/03/11 10:49:57;;;;;;;18.55;10.25;;;;;;;5.21;28.71;97441.11;1731342;82;21308;-79
2021/03/11 10:53:01;;;;;;;18.12;8.73;;;;;;;5.25;30.10;97438.70;1709610;82;21328;-77
2021/03/11 11:29:57;;;;;;;14.50;7.70;;;;;;;6.11;27.99;97389.14;1798949;78;26594;-75
2021/03/11 11:33:21;;;;;;;12.93;7.15;;;;;;;5.92;26.93;97394.56;1761653;80;21144;-75
2021/03/11 11:36:35;;;;;;;18.27;9.78;;;;;;;5.83;27.92;97384.14;1747450;80;21188;-76
2021/03/11 11:39:04;;;;;;;18.17;11.18;;;;;;;5.98;29.25;97381.13;1765888;80;21147;-74
2021/03/11 11:41:31;;;;;;;17.55;10.50;;;;;;;6.10;28.29;97378.29;1734074;81;21136;-74
2021/03/11 11:44:01;;;;;;;12.37;7.60;;;;;;;6.16;28.68;97366.18;1743478;82;21306;-76
2021/03/11 11:46:29;;;;;;;19.17;10.72;;;;;;;6.31;28.48;97366.20;1689647;83;21203;-76
2021/03/11 11:48:58;;;;;;;17.50;11.30;;;;;;;6.30;26.52;97358.83;1707184;83;21175;-75
2021/03/11 11:51:37;;;;;;;21.00;10.60;;;;;;;6.35;26.62;97351.53;1695379;83;21161;-75
2021/03/11 11:54:06;;;;;;;16.32;9.78;;;;;;;6.43;27.55;97355.02;1745393;80;21605;-74
2021/03/11 11:56:34;;;;;;;13.83;8.30;;;;;;;6.48;28.23;97346.41;1710663;83;21183;-73
2021/03/11 12:02:41;;;;;;;21.20;9.30;;;;;;;6.44;28.26;97339.69;1709063;80;21320;-76
2021/03/11 12:05:11;;;;;;;16.70;10.32;;;;;;;6.47;26.45;97339.96;1704468;83;21196;-76
2021/03/11 12:07:39;;;;;;;14.98;9.70;;;;;;;6.38;26.37;97338.72;1666643;85;21257;-75
2021/03/11 12:10:13;;;;;;;20.32;10.03;;;;;;;6.40;26.36;97328.52;1664177;85;21330;-74
2021/03/11 12:16:12;;;;;;;15.10;9.08;;;;;;;5.83;28.37;97200.19;1729600;81;21713;-74
2021/03/11 12:18:41;;;;;;;16.77;8.90;;;;;;;6.77;28.77;97320.23;1748640;81;21306;-75
2021/03/11 12:21:09;;;;;;;12.60;8.88;;;;;;;6.89;28.21;97317.31;1720389;80;21249;-73
2021/03/11 12:23:39;;;;;;;18.73;10.20;;;;;;;7.07;27.88;97305.31;1737773;80;21171;-74
2021/03/11 12:26:07;;;;;;;14.13;9.53;;;;;;;7.07;27.88;97305.31;1740984;82;21629;-74
2021/03/11 12:29:06;;;;;;;17.25;9.63;;;;;;;7.14;28.16;97310.56;1730387;81;21188;-74
2021/03/11 12:31:34;;;;;;;12.85;8.98;;;;;;;7.22;28.01;97310.06;1712942;82;21307;-75
2021/03/11 12:34:44;;;;;;;17.23;10.05;;;;;;;7.27;28.03;97298.83;1735001;81;21164;-75
2021/03/11 12:37:13;;;;;;;14.75;8.13;;;;;;;7.30;28.02;97301.23;1718846;82;21220;-76
2021/03/11 12:39:41;;;;;;;15.45;9.93;;;;;;;7.54;28.83;97294.88;1722050;82;21137;-75